Time;durP1;ratioP1;P1;durP2;ratioP2;P2;SDS_P1;SDS_P2;PMS_P1;PMS_P2;Temp;Humidity;BMP_temperature;BMP_pressure;BME280_temperature;BME280_humidity;BME280_pressure;Samples;Min_cycle;Max_cycle;Signal;HPM_P1;HPM_P2
2023/06/13 00:00:49;;;;;;;4.72;2.88;;;;;;;13.29;57.11;95812.66;2025674;29;20061;-57
2023/06/13 00:01:50;;;;;;;6.68;3.20;;;;;;;13.30;58.07;95800.44;2026324;29;20076;-58
2023/06/13 00:02:51;;;;;;;6.57;2.95;;;;;;;13.23;57.27;95807.75;2026141;29;20072;-58
2023/06/13 00:03:53;;;;;;;7.70;3.20;;;;;;;13.23;57.40;95806.00;2026451;29;20063;-56
2023/06/13 00:04:55;;;;;;;7.40;3.22;;;;;;;13.16;57.67;95806.47;2026454;29;20049;-58
2023/06/13 00:06:01;;;;;;;6.75;3.10;;;;;;;13.16;57.95;95803.84;2026493;29;20056;-58
2023/06/13 00:07:07;;;;;;;7.30;3.30;;;;;;;13.18;57.87;95799.41;2026401;29;20108;-58
2023/06/13 00:08:09;;;;;;;9.23;3.53;;;;;;;13.12;57.51;95795.34;2018044;29;20052;-58
2023/06/13 00:09:10;;;;;;;5.60;3.03;;;;;;;13.12;57.64;95800.56;2016967;29;20513;-58
2023/06/13 00:10:11;;;;;;;5.88;3.40;;;;;;;13.09;58.33;95794.72;2026292;29;20040;-57
2023/06/13 00:11:12;;;;;;;5.15;3.17;;;;;;;13.09;58.04;95790.34;2026100;29;20060;-58
2023/06/13 00:12:13;;;;;;;6.22;3.65;;;;;;;13.06;58.35;95793.13;2025661;29;20057;-58
2023/06/13 00:13:15;;;;;;;9.38;2.97;;;;;;;13.07;58.61;95796.56;2026139;29;20484;-57
2023/06/13 00:14:19;;;;;;;6.35;3.15;;;;;;;13.09;58.26;95799.94;2025825;29;20059;-57
2023/06/13 00:15:20;;;;;;;5.20;3.20;;;;;;;13.06;58.19;95800.13;2025522;29;20060;-58
2023/06/13 00:16:25;;;;;;;7.40;3.33;;;;;;;12.96;58.12;95789.41;2025888;29;20057;-57
2023/06/13 00:17:26;;;;;;;4.72;3.42;;;;;;;13.01;58.21;95797.78;2017553;29;20382;-57
2023/06/13 00:18:30;;;;;;;4.82;3.10;;;;;;;13.06;58.14;95794.91;2018261;29;20060;-58
2023/06/13 00:19:31;;;;;;;7.68;3.70;;;;;;;13.00;58.79;95794.34;2025607;29;20063;-58
2023/06/13 00:20:34;;;;;;;6.45;3.10;;;;;;;12.97;59.00;95786.72;2025657;29;20508;-57
2023/06/13 00:21:37;;;;;;;6.30;3.42;;;;;;;13.06;58.58;95787.91;2026200;29;20484;-57
2023/06/13 00:22:38;;;;;;;8.05;3.17;;;;;;;12.97;58.28;95788.47;2025218;29;20397;-58
2023/06/13 00:23:39;;;;;;;6.30;3.05;;;;;;;12.96;58.81;95790.25;2026034;29;20064;-58
2023/06/13 00:24:41;;;;;;;8.45;3.40;;;;;;;13.00;58.38;95791.75;2025641;29;20500;-58
2023/06/13 00:25:42;;;;;;;7.55;3.67;;;;;;;12.96;58.64;95792.88;2025891;29;20056;-57
2023/06/13 00:26:43;;;;;;;6.32;3.10;;;;;;;12.87;58.58;95788.19;2025492;29;20052;-57
2023/06/13 00:27:44;;;;;;;5.43;3.50;;;;;;;12.85;59.04;95787.44;2026143;29;20048;-58
2023/06/13 00:28:45;;;;;;;4.63;3.13;;;;;;;12.75;59.15;95768.91;2025859;29;20362;-58
2023/06/13 00:29:46;;;;;;;7.05;3.20;;;;;;;12.78;59.10;95786.13;2017916;29;20060;-58
2023/06/13 00:30:48;;;;;;;4.85;3.00;;;;;;;12.84;59.52;95787.53;2017526;29;20061;-58
2023/06/13 00:31:49;;;;;;;5.45;3.05;;;;;;;12.82;58.97;95778.97;2025591;29;20064;-57
2023/06/13 00:32:50;;;;;;;5.82;3.20;;;;;;;12.80;58.81;95787.72;2025836;29;20473;-58
2023/06/13 00:33:51;;;;;;;6.00;3.42;;;;;;;12.79;58.93;95786.03;2017776;29;20049;-58
2023/06/13 00:34:52;;;;;;;6.45;3.33;;;;;;;12.80;59.27;95773.84;2017801;29;20057;-58
2023/06/13 00:35:53;;;;;;;5.10;3.20;;;;;;;12.76;59.01;95777.56;2026218;29;20045;-58
2023/06/13 00:36:55;;;;;;;6.40;3.10;;;;;;;12.71;59.74;95774.41;2025892;29;20096;-58
2023/06/13 00:37:56;;;;;;;5.07;3.30;;;;;;;12.66;59.52;95772.06;2025942;29;20056;-57
2023/06/13 00:39:00;;;;;;;6.43;3.10;;;;;;;12.63;59.49;95777.44;2017397;29;20319;-57
2023/06/13 00:40:02;;;;;;;6.80;2.92;;;;;;;12.58;60.17;95767.28;2009459;29;20430;-57
2023/06/13 00:41:03;;;;;;;7.22;2.70;;;;;;;12.49;59.91;95765.25;2009574;29;20053;-58
2023/06/13 00:42:06;;;;;;;7.00;3.28;;;;;;;12.54;60.60;95773.63;2009802;29;20054;-58
2023/06/13 00:43:08;;;;;;;6.60;3.33;;;;;;;12.53;59.73;95776.31;2009666;29;20056;-58
2023/06/13 00:44:09;;;;;;;9.10;3.60;;;;;;;12.53;60.15;95771.94;2017863;29;20045;-58
2023/06/13 00:45:20;;;;;;;9.23;2.70;;;;;;;12.50;60.21;95766.91;2017785;29;20513;-58
2023/06/13 00:46:28;;;;;;;4.95;2.95;;;;;;;12.54;60.66;95770.19;2010831;29;20060;-57
2023/06/13 00:47:30;;;;;;;4.88;3.03;;;;;;;12.46;59.93;95765.41;2010923;29;20049;-58
2023/06/13 00:48:33;;;;;;;5.38;2.80;;;;;;;12.43;60.12;95760.41;2002901;29;20056;-57
2023/06/13 00:49:34;;;;;;;8.50;3.55;;;;;;;12.44;60.72;95761.22;2002619;29;20459;-58
2023/06/13 00:50:40;;;;;;;5.15;3.05;;;;;;;12.40;60.61;95763.16;2010418;29;20057;-57
2023/06/13 00:51:42;;;;;;;5.75;3.13;;;;;;;12.33;60.50;95746.22;2018180;29;20071;-57
2023/06/13 00:52:43;;;;;;;5.50;3.28;;;;;;;12.39;60.87;95766.69;2017558;29;20049;-58
2023/06/13 00:53:44;;;;;;;7.65;3.35;;;;;;;12.35;60.98;95760.00;2017420;29;20433;-58
2023/06/13 00:54:45;;;;;;;5.72;3.58;;;;;;;12.36;61.05;95761.66;2017472;29;20065;-58
2023/06/13 00:55:47;;;;;;;4.80;3.17;;;;;;;12.30;61.30;95760.25;2002425;29;20050;-58
2023/06/13 00:56:48;;;;;;;6.28;3.35;;;;;;;12.30;60.40;95757.66;2009302;29;20118;-58
2023/06/13 00:57:51;;;;;;;6.07;3.28;;;;;;;12.28;60.68;95751.69;2009703;29;20061;-58
2023/06/13 00:58:55;;;;;;;5.35;3.30;;;;;;;12.34;61.00;95760.91;2010535;29;20351;-58
2023/06/13 00:59:56;;;;;;;4.93;3.28;;;;;;;12.36;60.75;95753.84;2017654;29;20401;-58
2023/06/13 01:00:57;;;;;;;9.07;3.63;;;;;;;12.41;61.04;95756.19;2010167;29;20072;-58
2023/06/13 01:01:59;;;;;;;8.10;3.20;;;;;;;12.28;60.19;95746.47;1994417;29;20134;-57
2023/06/13 01:03:02;;;;;;;6.28;3.40;;;;;;;12.21;61.07;95741.72;2009513;29;20049;-58
2023/06/13 01:04:05;;;;;;;7.00;3.05;;;;;;;12.27;60.73;95756.97;2017301;29;20049;-58
2023/06/13 01:05:11;;;;;;;6.35;3.10;;;;;;;12.21;60.83;95755.56;2017205;29;20493;-58
2023/06/13 01:06:14;;;;;;;5.57;3.20;;;;;;;12.20;61.25;95763.47;2018394;29;20520;-58
2023/06/13 01:07:16;;;;;;;6.78;2.95;;;;;;;12.22;61.17;95757.25;2025568;29;20079;-58
2023/06/13 01:08:22;;;;;;;6.68;3.38;;;;;;;12.19;62.07;95761.78;2017306;29;20053;-58
2023/06/13 01:09:23;;;;;;;6.10;3.15;;;;;;;12.14;61.87;95757.69;1995322;29;20061;-57
2023/06/13 01:10:28;;;;;;;7.18;3.58;;;;;;;12.13;62.25;95761.25;2002138;29;20115;-58
2023/06/13 01:11:45;;;;;;;7.25;3.20;;;;;;;12.12;62.33;95763.91;2017610;29;20076;-58
2023/06/13 01:12:56;;;;;;;8.93;3.10;;;;;;;12.04;62.41;95764.34;2017250;29;20057;-58
2023/06/13 01:14:01;;;;;;;5.13;3.40;;;;;;;12.00;62.28;95756.78;2010784;29;20054;-58
2023/06/13 01:15:02;;;;;;;6.63;3.50;;;;;;;12.02;62.65;95758.38;2002661;29;20068;-58
2023/06/13 01:16:40;;;;;;;6.78;3.30;;;;;;;11.99;62.89;95757.72;2009880;29;20121;-57
2023/06/13 01:17:49;;;;;;;5.65;3.55;;;;;;;11.95;63.12;95766.63;2017164;29;20458;-58
2023/06/13 01:18:50;;;;;;;5.28;3.40;;;;;;;11.87;63.28;95754.06;2018630;29;20489;-57
2023/06/13 01:19:57;;;;;;;9.32;3.00;;;;;;;11.84;63.36;95752.44;2017597;29;20045;-57
2023/06/13 01:21:00;;;;;;;4.85;3.05;;;;;;;11.90;63.21;95753.88;2017914;29;20453;-57
2023/06/13 01:22:01;;;;;;;8.95;3.30;;;;;;;11.86;63.38;95752.38;2017441;29;20051;-58
2023/06/13 01:23:24;;;;;;;7.78;3.55;;;;;;;11.91;62.81;95763.34;2009510;29;20484;-58
2023/06/13 01:24:38;;;;;;;5.68;3.28;;;;;;;11.87;62.53;95754.91;2007482;29;20057;-57
2023/06/13 01:25:52;;;;;;;9.70;3.45;;;;;;;11.85;62.73;95751.50;1996134;29;20062;-57
2023/06/13 01:26:56;;;;;;;8.20;3.45;;;;;;;11.89;63.68;95755.66;2000108;29;20054;-58
2023/06/13 01:27:57;;;;;;;6.72;3.25;;;;;;;11.87;63.12;95748.84;2010119;29;20053;-57
2023/06/13 01:28:58;;;;;;;7.00;3.60;;;;;;;11.85;63.70;95750.66;2002177;29;20053;-56
2023/06/13 01:30:01;;;;;;;7.25;3.22;;;;;;;11.80;62.94;95755.28;2002430;29;20049;-57
2023/06/13 01:31:03;;;;;;;8.20;3.28;;;;;;;11.74;64.25;95747.84;2001879;29;20058;-57
2023/06/13 01:32:04;;;;;;;4.63;3.20;;;;;;;11.72;63.76;95742.72;2001714;29;20054;-58
2023/06/13 01:33:05;;;;;;;5.95;3.47;;;;;;;11.73;63.81;95753.94;2009433;29;20423;-57
2023/06/13 01:34:07;;;;;;;11.65;3.60;;;;;;;11.70;63.22;95745.38;2009303;29;20053;-58
2023/06/13 01:35:08;;;;;;;6.13;3.17;;;;;;;11.74;63.74;95747.84;2017417;29;20052;-57
2023/06/13 01:36:09;;;;;;;5.10;3.10;;;;;;;11.69;63.67;95742.88;2017069;29;20530;-58
2023/06/13 01:37:10;;;;;;;6.18;3.75;;;;;;;11.73;63.91;95749.56;2001643;29;20057;-57
2023/06/13 01:38:11;;;;;;;11.38;3.80;;;;;;;11.73;63.63;95746.97;2009361;29;20049;-58
2023/06/13 01:39:12;;;;;;;5.28;3.10;;;;;;;11.74;63.53;95748.66;2017317;29;20056;-57
2023/06/13 01:40:16;;;;;;;7.57;3.47;;;;;;;11.65;63.46;95726.63;2009783;29;20056;-57
2023/06/13 01:41:17;;;;;;;5.55;3.67;;;;;;;11.62;64.09;95728.53;2016629;29;20490;-58
2023/06/13 01:42:18;;;;;;;8.40;3.47;;;;;;;11.66;64.34;95748.25;2025646;29;20041;-58
2023/06/13 01:43:20;;;;;;;6.88;3.35;;;;;;;11.61;63.76;95743.31;2016702;29;20052;-58
2023/06/13 01:44:21;;;;;;;6.65;3.60;;;;;;;11.64;64.11;95745.72;2017237;29;20113;-57
2023/06/13 01:45:22;;;;;;;5.55;3.58;;;;;;;11.55;62.96;95735.00;2017287;29;20049;-57
2023/06/13 01:46:26;;;;;;;6.68;3.22;;;;;;;11.70;63.45;95747.97;1994005;29;20066;-57
2023/06/13 01:47:35;;;;;;;7.80;3.28;;;;;;;11.65;63.51;95743.97;2002757;29;20065;-57
2023/06/13 01:48:41;;;;;;;5.38;3.30;;;;;;;11.62;63.88;95747.56;2009668;29;20060;-58
2023/06/13 01:50:03;;;;;;;7.53;3.20;;;;;;;11.63;63.65;95738.88;2003249;29;20058;-57
2023/06/13 01:51:09;;;;;;;6.07;3.50;;;;;;;11.58;63.59;95743.47;2012284;29;20505;-57
2023/06/13 01:52:34;;;;;;;6.70;3.65;;;;;;;11.58;64.39;95734.84;2018723;29;20049;-57
2023/06/13 01:53:54;;;;;;;6.78;3.38;;;;;;;11.51;63.78;95729.13;2017705;29;20505;-57
2023/06/13 01:55:00;;;;;;;7.85;3.47;;;;;;;11.61;63.38;95738.09;2003538;29;20058;-57
2023/06/13 01:56:02;;;;;;;4.28;3.30;;;;;;;11.54;63.48;95734.16;2003400;29;20064;-58
2023/06/13 01:57:05;;;;;;;5.70;3.10;;;;;;;11.49;64.50;95733.56;2001920;29;20060;-57
2023/06/13 01:58:11;;;;;;;6.60;3.30;;;;;;;11.46;64.22;95734.56;1987033;29;20431;-57
2023/06/13 01:59:12;;;;;;;7.57;3.50;;;;;;;11.42;64.82;95721.84;2003876;29;20053;-57
2023/06/13 02:00:13;;;;;;;6.53;3.22;;;;;;;11.40;64.78;95726.28;2001693;29;20065;-58
2023/06/13 02:01:18;;;;;;;9.77;3.45;;;;;;;11.33;63.99;95711.94;1995210;29;20058;-57
2023/06/13 02:02:19;;;;;;;8.27;3.60;;;;;;;11.45;64.01;95726.88;2001802;29;20057;-58
2023/06/13 02:03:20;;;;;;;8.63;3.58;;;;;;;11.41;63.71;95723.59;1994262;29;20059;-57
2023/06/13 02:04:21;;;;;;;7.07;3.50;;;;;;;11.42;64.57;95722.69;1997201;29;20058;-57
2023/06/13 02:05:25;;;;;;;7.40;3.53;;;;;;;11.40;64.45;95728.88;2009786;29;20053;-58
2023/06/13 02:06:26;;;;;;;5.22;3.17;;;;;;;11.42;63.83;95727.03;2009803;29;20057;-58
2023/06/13 02:07:28;;;;;;;5.53;3.58;;;;;;;11.34;64.79;95730.06;2009244;29;20490;-57
2023/06/13 02:08:30;;;;;;;7.75;3.58;;;;;;;11.27;64.76;95728.69;2016838;29;20209;-58
2023/06/13 02:09:31;;;;;;;7.28;3.35;;;;;;;11.26;64.23;95729.63;2017013;29;20068;-57
2023/06/13 02:10:32;;;;;;;5.28;2.90;;;;;;;11.23;64.49;95729.81;2025468;29;20088;-57
2023/06/13 02:11:33;;;;;;;8.52;4.03;;;;;;;11.27;63.92;95726.94;2025643;29;20350;-58
2023/06/13 02:12:34;;;;;;;4.88;3.28;;;;;;;11.33;64.21;95724.94;2025708;29;20053;-57
2023/06/13 02:13:35;;;;;;;5.50;3.38;;;;;;;11.31;63.63;95716.41;2017243;29;20068;-57
2023/06/13 02:14:36;;;;;;;6.10;3.15;;;;;;;11.29;64.73;95723.44;2009569;29;20473;-58
2023/06/13 02:15:37;;;;;;;5.50;2.95;;;;;;;11.27;64.74;95721.72;2009214;29;20406;-57
2023/06/13 02:16:39;;;;;;;8.77;3.17;;;;;;;11.26;64.15;95720.06;2017235;29;20045;-57
2023/06/13 02:17:42;;;;;;;7.68;3.28;;;;;;;11.24;64.40;95713.28;2016631;29;20066;-57
2023/06/13 02:18:46;;;;;;;7.15;3.30;;;;;;;11.19;64.22;95702.28;2017192;29;20053;-57
2023/06/13 02:19:47;;;;;;;7.45;3.53;;;;;;;11.22;64.23;95723.75;2016574;29;20059;-57
2023/06/13 02:20:50;;;;;;;8.25;4.13;;;;;;;11.21;64.38;95716.88;2016591;29;20056;-58
2023/06/13 02:21:52;;;;;;;4.97;3.30;;;;;;;11.18;64.51;95711.03;2009424;29;20493;-57
2023/06/13 02:22:53;;;;;;;5.40;3.28;;;;;;;11.15;64.30;95718.97;2017404;29;20045;-57
2023/06/13 02:23:54;;;;;;;4.72;3.08;;;;;;;11.11;64.81;95714.84;2025615;29;20044;-57
2023/06/13 02:24:55;;;;;;;7.63;3.35;;;;;;;11.06;64.74;95725.50;2025307;29;20526;-57
2023/06/13 02:25:56;;;;;;;5.15;3.40;;;;;;;11.02;65.25;95717.03;2025226;29;20056;-57
2023/06/13 02:26:59;;;;;;;6.30;3.65;;;;;;;11.03;65.15;95723.06;2025172;29;20060;-57
2023/06/13 02:28:00;;;;;;;4.90;3.38;;;;;;;11.06;65.10;95717.69;2025248;29;20061;-57
2023/06/13 02:29:02;;;;;;;4.30;3.13;;;;;;;11.04;64.90;95712.59;2017072;29;20045;-58
2023/06/13 02:30:04;;;;;;;7.85;3.50;;;;;;;11.01;65.03;95719.69;2017036;29;20053;-57
2023/06/13 02:31:05;;;;;;;6.15;3.05;;;;;;;11.01;64.27;95714.50;2009446;29;20049;-58
2023/06/13 02:32:06;;;;;;;10.00;3.50;;;;;;;11.03;63.94;95717.88;2009266;29;20402;-58
2023/06/13 02:33:08;;;;;;;6.43;3.10;;;;;;;11.07;63.73;95719.41;2017065;29;20060;-58
2023/06/13 02:34:09;;;;;;;5.25;2.63;;;;;;;11.06;63.75;95717.69;2025574;29;20075;-57
2023/06/13 02:35:12;;;;;;;6.10;3.08;;;;;;;10.95;63.87;95701.84;2016719;29;20064;-57
2023/06/13 02:36:13;;;;;;;8.13;3.40;;;;;;;11.00;64.74;95712.84;2017130;29;20397;-57
2023/06/13 02:37:16;;;;;;;6.63;3.05;;;;;;;10.96;64.19;95709.56;2017219;29;20422;-58
2023/06/13 02:38:18;;;;;;;6.82;3.40;;;;;;;10.86;64.80;95704.94;2017063;29;20470;-58
2023/06/13 02:39:22;;;;;;;8.32;3.75;;;;;;;10.94;64.08;95713.16;2009677;29;20054;-58
2023/06/13 02:40:23;;;;;;;7.05;3.30;;;;;;;10.85;64.08;95708.44;2009324;29;20062;-57
2023/06/13 02:41:24;;;;;;;6.50;3.17;;;;;;;10.89;64.66;95707.38;2016205;29;20068;-58
2023/06/13 02:42:29;;;;;;;9.85;3.20;;;;;;;10.98;64.33;95712.91;2016515;29;20068;-57
2023/06/13 02:43:30;;;;;;;4.50;3.08;;;;;;;10.97;64.33;95713.84;2009655;29;20054;-57
2023/06/13 02:44:31;;;;;;;6.38;3.00;;;;;;;10.94;64.11;95716.59;2008822;29;20437;-57
2023/06/13 02:45:32;;;;;;;10.73;3.78;;;;;;;10.93;64.16;95714.06;2009388;29;20398;-57
2023/06/13 02:46:33;;;;;;;5.65;3.50;;;;;;;10.93;63.89;95712.34;2017180;29;20068;-57
2023/06/13 02:47:34;;;;;;;6.00;3.40;;;;;;;10.91;64.41;95708.97;2009352;29;20069;-57
2023/06/13 02:48:35;;;;;;;6.85;3.30;;;;;;;10.88;64.66;95708.28;2009106;29;20417;-57
2023/06/13 02:49:37;;;;;;;5.97;3.30;;;;;;;10.90;64.68;95716.84;2016531;29;20057;-57
2023/06/13 02:50:38;;;;;;;8.32;3.03;;;;;;;10.77;63.87;95695.84;2017274;29;20053;-57
2023/06/13 02:51:39;;;;;;;9.77;3.50;;;;;;;10.85;63.84;95716.25;2016754;29;20079;-58
2023/06/13 02:52:40;;;;;;;7.80;3.05;;;;;;;10.73;64.76;95689.16;2016708;29;20068;-57
2023/06/13 02:53:41;;;;;;;6.53;3.05;;;;;;;10.77;64.17;95717.50;2017385;29;20053;-57
2023/06/13 02:54:42;;;;;;;5.30;3.05;;;;;;;10.85;64.03;95716.25;2025342;29;20052;-57
2023/06/13 02:55:44;;;;;;;7.32;3.05;;;;;;;10.84;63.97;95706.78;2025518;29;20456;-57
2023/06/13 02:56:46;;;;;;;7.85;3.42;;;;;;;10.81;63.67;95708.63;2016711;29;20061;-57
2023/06/13 02:57:47;;;;;;;5.30;2.88;;;;;;;10.81;63.38;95712.97;2016685;29;20518;-57
2023/06/13 02:58:48;;;;;;;5.13;2.90;;;;;;;10.75;63.98;95714.13;2016542;29;20381;-57
2023/06/13 02:59:49;;;;;;;6.68;2.95;;;;;;;10.77;63.76;95708.84;2008897;29;20057;-57
2023/06/13 03:00:51;;;;;;;6.50;3.13;;;;;;;10.79;63.23;95707.84;2017440;29;20080;-57
2023/06/13 03:01:53;;;;;;;5.78;3.15;;;;;;;10.76;63.37;95708.00;2008972;29;20057;-57
2023/06/13 03:02:58;;;;;;;4.75;3.08;;;;;;;10.76;63.63;95714.97;2009366;29;20447;-57
2023/06/13 03:04:00;;;;;;;5.15;3.08;;;;;;;10.71;63.64;95707.41;2017454;29;20355;-57
2023/06/13 03:05:03;;;;;;;5.50;2.90;;;;;;;10.66;63.92;95708.56;2017029;29;20059;-58
2023/06/13 03:06:04;;;;;;;8.13;3.33;;;;;;;10.55;64.10;95693.56;2009584;29;20129;-57
2023/06/13 03:07:16;;;;;;;5.70;3.25;;;;;;;10.56;63.70;95696.09;2011512;29;20056;-57
2023/06/13 03:08:18;;;;;;;9.05;3.38;;;;;;;10.56;64.44;95703.88;2011385;29;20053;-57
2023/06/13 03:09:20;;;;;;;7.85;3.42;;;;;;;10.49;64.24;95692.13;2010550;29;20545;-57
2023/06/13 03:10:21;;;;;;;5.43;2.92;;;;;;;10.54;64.00;95702.28;2017741;29;20061;-57
2023/06/13 03:11:22;;;;;;;6.35;3.10;;;;;;;10.52;63.79;95696.31;2018293;29;20053;-57
2023/06/13 03:12:23;;;;;;;4.70;3.22;;;;;;;10.53;63.80;95703.16;2018413;29;20049;-57
2023/06/13 03:13:27;;;;;;;7.28;3.53;;;;;;;10.53;64.24;95698.84;2010711;29;20062;-57
2023/06/13 03:14:28;;;;;;;6.55;3.20;;;;;;;10.56;63.62;95700.44;2003099;29;20094;-57
2023/06/13 03:15:32;;;;;;;5.78;3.17;;;;;;;10.62;63.28;95702.72;2003519;29;20530;-57
2023/06/13 03:16:35;;;;;;;4.22;2.80;;;;;;;10.54;63.80;95697.91;2010483;29;20056;-56
2023/06/13 03:17:38;;;;;;;5.35;3.10;;;;;;;10.62;63.36;95700.13;2010397;29;20057;-57
2023/06/13 03:18:41;;;;;;;6.18;2.95;;;;;;;10.60;64.00;95702.78;2010946;29;20049;-57
2023/06/13 03:19:42;;;;;;;7.22;3.20;;;;;;;10.57;64.02;95705.53;2010402;29;20513;-57
2023/06/13 03:20:47;;;;;;;8.27;2.75;;;;;;;10.52;63.17;95697.13;2010585;29;20064;-57
2023/06/13 03:21:49;;;;;;;5.82;3.20;;;;;;;10.61;63.38;95701.00;2011375;29;20053;-57
2023/06/13 03:22:51;;;;;;;5.43;2.58;;;;;;;10.60;63.45;95707.13;2010578;29;20074;-57
2023/06/13 03:23:52;;;;;;;4.40;3.17;;;;;;;10.56;63.14;95700.44;2017739;29;20057;-57
2023/06/13 03:24:53;;;;;;;5.55;3.22;;;;;;;10.54;63.04;95703.09;2017896;29;20056;-57
2023/06/13 03:25:54;;;;;;;7.07;2.78;;;;;;;10.51;63.31;95700.66;2018367;29;20427;-56
2023/06/13 03:26:57;;;;;;;7.22;3.22;;;;;;;10.54;62.97;95702.28;2018454;29;20398;-57
2023/06/13 03:27:58;;;;;;;5.63;3.30;;;;;;;10.58;62.43;95707.22;2010680;29;20049;-57
2023/06/13 03:28:59;;;;;;;5.07;2.78;;;;;;;10.58;62.71;95702.03;2018454;29;20049;-57
2023/06/13 03:30:00;;;;;;;7.25;3.08;;;;;;;10.51;63.28;95700.66;2010867;29;20375;-57
2023/06/13 03:31:02;;;;;;;7.70;3.30;;;;;;;10.49;63.11;95699.91;2009779;29;20486;-57
2023/06/13 03:32:11;;;;;;;10.25;3.58;;;;;;;10.51;63.12;95705.03;2010252;29;20061;-57
2023/06/13 03:33:13;;;;;;;7.22;3.63;;;;;;;10.53;63.11;95708.38;2010792;29;20053;-57
2023/06/13 03:34:18;;;;;;;6.15;3.33;;;;;;;10.54;63.36;95708.28;2010837;29;20050;-57
2023/06/13 03:35:19;;;;;;;4.82;3.17;;;;;;;10.52;62.53;95706.69;2010795;29;20058;-57
2023/06/13 03:36:21;;;;;;;5.93;3.22;;;;;;;10.55;62.53;95707.38;2010853;29;20084;-57
2023/06/13 03:37:22;;;;;;;6.38;2.95;;;;;;;10.60;62.85;95712.31;2017898;29;20060;-57
2023/06/13 03:38:23;;;;;;;5.53;2.70;;;;;;;10.58;62.40;95714.16;2026283;29;20366;-56
2023/06/13 03:39:24;;;;;;;5.57;3.20;;;;;;;10.60;62.31;95715.75;2010201;29;20061;-57
2023/06/13 03:40:26;;;;;;;6.68;3.00;;;;;;;10.64;62.20;95720.78;2002241;29;20058;-57
2023/06/13 03:41:27;;;;;;;7.55;2.88;;;;;;;10.65;62.12;95712.94;2017679;29;20060;-57
2023/06/13 03:42:28;;;;;;;7.13;3.33;;;;;;;10.63;61.95;95709.56;2018177;29;20053;-57
2023/06/13 03:43:29;;;;;;;8.18;3.35;;;;;;;10.64;62.61;95721.66;2017917;29;20065;-57
2023/06/13 03:44:30;;;;;;;5.10;2.97;;;;;;;10.52;62.29;95702.34;2017651;29;20052;-57
2023/06/13 03:45:32;;;;;;;6.82;3.40;;;;;;;10.68;62.21;95717.97;2018384;29;20052;-57
2023/06/13 03:46:33;;;;;;;9.07;3.08;;;;;;;10.67;61.88;95716.28;2017781;29;20061;-57
2023/06/13 03:47:35;;;;;;;4.80;3.30;;;;;;;10.63;61.97;95719.97;2018252;29;20041;-57
2023/06/13 03:48:36;;;;;;;6.38;3.08;;;;;;;10.72;62.03;95721.22;2017865;29;20057;-57
2023/06/13 03:49:37;;;;;;;5.50;3.15;;;;;;;10.71;61.64;95717.81;2017892;29;20504;-57
2023/06/13 03:50:38;;;;;;;6.28;3.10;;;;;;;10.65;62.44;95710.34;2018329;29;20052;-57
2023/06/13 03:51:41;;;;;;;5.78;3.17;;;;;;;10.66;62.52;95709.41;2017712;29;20069;-57
2023/06/13 03:52:43;;;;;;;4.75;3.30;;;;;;;10.72;61.61;95718.63;2017906;29;20481;-57
2023/06/13 03:53:44;;;;;;;7.13;3.17;;;;;;;10.73;62.39;95713.38;2017680;29;20101;-57
2023/06/13 03:54:45;;;;;;;4.63;3.05;;;;;;;10.75;62.17;95714.13;2018462;29;20060;-57
2023/06/13 03:55:46;;;;;;;6.63;2.97;;;;;;;10.76;61.27;95712.38;2018405;29;20060;-57
2023/06/13 03:56:48;;;;;;;6.05;3.03;;;;;;;10.75;61.58;95708.94;2017995;29;20114;-57
2023/06/13 03:57:49;;;;;;;7.00;3.25;;;;;;;10.70;61.59;95702.31;2010349;29;20060;-57
2023/06/13 03:58:51;;;;;;;4.63;3.30;;;;;;;10.81;61.39;95715.56;2017699;29;20053;-57
2023/06/13 03:59:55;;;;;;;5.20;2.90;;;;;;;10.74;61.54;95690.81;2026134;29;20057;-57
2023/06/13 04:00:57;;;;;;;5.63;3.22;;;;;;;10.88;62.08;95708.28;2017485;29;20482;-57
2023/06/13 04:01:58;;;;;;;5.65;2.97;;;;;;;10.88;61.13;95718.66;2017238;29;20478;-57
2023/06/13 04:03:00;;;;;;;6.25;3.05;;;;;;;10.88;61.44;95711.75;2026371;29;20041;-58
2023/06/13 04:04:01;;;;;;;7.63;3.03;;;;;;;10.88;61.58;95714.34;2017746;29;20068;-57
2023/06/13 04:05:03;;;;;;;7.47;2.70;;;;;;;10.91;61.11;95708.97;2017309;29;20060;-57
2023/06/13 04:06:04;;;;;;;5.72;3.05;;;;;;;10.94;61.10;95714.00;2017278;29;20053;-57
2023/06/13 04:07:05;;;;;;;7.13;3.25;;;;;;;10.96;60.82;95719.09;2017560;29;20057;-57
2023/06/13 04:08:07;;;;;;;5.80;2.83;;;;;;;10.98;60.54;95720.69;2017545;29;20056;-57
2023/06/13 04:09:08;;;;;;;6.05;2.83;;;;;;;11.00;60.69;95718.03;2002306;29;20430;-57
2023/06/13 04:10:10;;;;;;;9.95;2.95;;;;;;;11.08;61.21;95715.88;2009920;29;20056;-57
2023/06/13 04:11:11;;;;;;;7.70;3.13;;;;;;;11.10;60.91;95719.22;2025593;29;20087;-57
2023/06/13 04:12:12;;;;;;;4.20;2.83;;;;;;;11.12;60.02;95730.38;2025747;29;20065;-57
2023/06/13 04:13:14;;;;;;;4.90;3.13;;;;;;;11.05;60.25;95708.22;2017456;29;20059;-57
2023/06/13 04:14:16;;;;;;;6.82;3.22;;;;;;;11.19;59.91;95725.69;2016816;29;20437;-57
2023/06/13 04:15:17;;;;;;;5.88;2.80;;;;;;;11.19;60.47;95726.50;2017405;29;20105;-57
2023/06/13 04:16:19;;;;;;;4.90;3.08;;;;;;;11.22;60.21;95731.53;2018312;29;20057;-57
2023/06/13 04:17:22;;;;;;;7.25;2.70;;;;;;;11.13;59.63;95713.84;2017219;29;20060;-57
2023/06/13 04:18:24;;;;;;;7.40;3.20;;;;;;;11.26;60.32;95729.63;2016686;29;20057;-57
2023/06/13 04:19:25;;;;;;;5.40;3.00;;;;;;;11.31;59.91;95719.00;2017642;29;20389;-57
2023/06/13 04:20:27;;;;;;;5.32;3.08;;;;;;;11.31;59.72;95730.22;2017531;29;20438;-57
2023/06/13 04:21:28;;;;;;;6.65;2.90;;;;;;;11.30;59.74;95717.31;2009435;29;20053;-57
2023/06/13 04:22:31;;;;;;;6.22;2.65;;;;;;;11.32;60.10;95724.09;2002306;29;20198;-57
2023/06/13 04:23:32;;;;;;;6.57;3.22;;;;;;;11.32;58.98;95724.09;2017778;29;20370;-57
2023/06/13 04:24:33;;;;;;;6.85;3.08;;;;;;;11.36;60.10;95719.56;2025794;29;20045;-58
2023/06/13 04:25:35;;;;;;;5.63;3.17;;;;;;;11.30;60.05;95717.31;2025734;29;20469;-57
2023/06/13 04:26:37;;;;;;;5.95;3.20;;;;;;;11.40;60.02;95724.50;2016818;29;20457;-57
2023/06/13 04:27:38;;;;;;;6.30;2.88;;;;;;;11.42;59.85;95724.44;2017566;29;20052;-57
2023/06/13 04:28:40;;;;;;;4.65;2.88;;;;;;;11.45;59.71;95724.28;2017110;29;20431;-57
2023/06/13 04:29:43;;;;;;;9.13;2.88;;;;;;;11.47;59.07;95722.44;2017254;29;20063;-57
2023/06/13 04:30:47;;;;;;;7.22;3.13;;;;;;;11.50;58.83;95726.63;2017108;29;20389;-57
2023/06/13 04:31:50;;;;;;;5.00;3.03;;;;;;;11.50;59.43;95727.47;2017587;29;20073;-57
2023/06/13 04:32:51;;;;;;;5.53;3.20;;;;;;;11.52;59.02;95720.41;2017060;29;20482;-57
2023/06/13 04:33:55;;;;;;;8.15;3.20;;;;;;;11.55;58.67;95729.81;2017488;29;20064;-57
2023/06/13 04:34:58;;;;;;;4.53;2.97;;;;;;;11.58;58.64;95737.44;2025701;29;20485;-58
2023/06/13 04:36:03;;;;;;;6.93;3.10;;;;;;;11.61;58.29;95730.31;2025113;29;20057;-57
2023/06/13 04:37:04;;;;;;;6.32;3.30;;;;;;;11.64;58.66;95731.88;2025300;29;20405;-58
2023/06/13 04:38:08;;;;;;;6.45;3.30;;;;;;;11.65;58.36;95728.34;2025232;29;20056;-58
2023/06/13 04:39:10;;;;;;;5.72;2.53;;;;;;;11.68;58.54;95733.38;2025182;29;20406;-57
2023/06/13 04:40:13;;;;;;;4.78;2.50;;;;;;;11.70;58.61;95728.94;2025400;29;20052;-57
2023/06/13 04:41:14;;;;;;;5.75;3.03;;;;;;;11.75;57.76;95741.69;2025287;29;20079;-57
2023/06/13 04:42:21;;;;;;;6.45;3.10;;;;;;;11.77;57.72;95732.06;2025839;29;20048;-57
2023/06/13 04:43:22;;;;;;;9.10;3.10;;;;;;;11.80;57.44;95729.28;2025605;29;20067;-57
2023/06/13 04:44:26;;;;;;;7.15;2.97;;;;;;;11.81;57.78;95731.78;2025751;29;20072;-57
2023/06/13 04:45:27;;;;;;;5.18;2.72;;;;;;;11.85;58.04;95740.25;2025842;29;20055;-57
2023/06/13 04:46:30;;;;;;;7.72;2.80;;;;;;;11.84;58.21;95730.75;2025959;29;20354;-58
2023/06/13 04:47:31;;;;;;;5.80;3.35;;;;;;;11.95;57.46;95756.22;2017271;29;20072;-57
2023/06/13 04:48:32;;;;;;;5.53;2.97;;;;;;;11.97;57.35;95749.16;2017248;29;20053;-57
2023/06/13 04:49:33;;;;;;;8.45;3.58;;;;;;;11.98;57.90;95745.66;2025330;29;20056;-57
2023/06/13 04:50:37;;;;;;;7.28;3.22;;;;;;;11.99;57.25;95750.75;2025654;29;20363;-57
2023/06/13 04:51:38;;;;;;;6.05;3.22;;;;;;;12.01;57.29;95746.31;2025575;29;20064;-57
2023/06/13 04:52:40;;;;;;;6.63;2.80;;;;;;;12.05;57.22;95754.75;2025350;29;20066;-57
2023/06/13 04:53:41;;;;;;;9.20;3.33;;;;;;;12.09;56.44;95756.28;2025704;29;20086;-57
2023/06/13 04:54:42;;;;;;;4.35;2.65;;;;;;;12.14;56.15;95755.09;2025643;29;20056;-56
2023/06/13 04:55:44;;;;;;;8.73;3.20;;;;;;;12.20;56.92;95756.50;2025509;29;20052;-57